createdAt,value
2023-04-19T00:01:28.412Z,5.83
2023-04-19T00:04:33.903Z,5.76
2023-04-19T00:07:37.581Z,5.71
2023-04-19T00:10:41.116Z,5.67
2023-04-19T00:13:44.676Z,5.66
2023-04-19T00:16:48.410Z,5.62
2023-04-19T00:19:53.469Z,5.59
2023-04-19T00:22:58.644Z,5.62
2023-04-19T00:26:04.666Z,5.61
2023-04-19T00:29:09.135Z,5.54
2023-04-19T00:32:12.629Z,5.52
2023-04-19T00:35:17.584Z,5.48
2023-04-19T00:38:20.996Z,5.45
2023-04-19T00:41:24.509Z,5.43
2023-04-19T00:44:28.380Z,5.40
2023-04-19T00:47:32.147Z,5.37
2023-04-19T00:50:37.399Z,5.27
2023-04-19T00:53:42.795Z,5.23
2023-04-19T00:56:47.147Z,5.15
2023-04-19T00:59:51.241Z,5.12
2023-04-19T01:02:55.722Z,5.11
2023-04-19T01:06:00.841Z,5.14
2023-04-19T01:09:05.116Z,5.07
2023-04-19T01:12:08.823Z,5.01
2023-04-19T01:15:13.093Z,4.97
2023-04-19T01:18:17.106Z,4.86
2023-04-19T01:21:23.128Z,4.78
2023-04-19T01:24:27.988Z,4.79
2023-04-19T01:27:32.239Z,4.80
2023-04-19T01:30:38.041Z,4.78
2023-04-19T01:33:41.573Z,4.76
2023-04-19T01:36:45.047Z,4.69
2023-04-19T01:39:49.953Z,4.67
2023-04-19T01:42:54.071Z,4.66
2023-04-19T01:45:57.600Z,4.61
2023-04-19T01:49:01.119Z,4.61
2023-04-19T01:52:04.758Z,4.51
2023-04-19T01:55:10.648Z,4.50
2023-04-19T01:58:14.207Z,4.46
2023-04-19T02:01:17.872Z,4.41
2023-04-19T02:04:22.393Z,4.40
2023-04-19T02:07:26.005Z,4.34
2023-04-19T02:10:31.005Z,4.32
2023-04-19T02:13:34.536Z,4.25
2023-04-19T02:16:38.052Z,4.19
2023-04-19T02:19:41.508Z,4.11
2023-04-19T02:22:45.177Z,4.03
2023-04-19T02:25:50.046Z,3.97
2023-04-19T02:28:55.299Z,3.91
2023-04-19T02:31:59.680Z,3.89
2023-04-19T02:35:03.531Z,3.85
2023-04-19T02:38:07.021Z,3.83
2023-04-19T02:41:11.871Z,3.84
2023-04-19T02:44:15.578Z,3.83
2023-04-19T02:47:19.241Z,3.75
2023-04-19T02:50:22.962Z,3.67
2023-04-19T02:53:26.507Z,3.59
2023-04-19T02:56:31.381Z,3.55
2023-04-19T02:59:34.856Z,3.49
2023-04-19T03:02:39.582Z,3.35
2023-04-19T03:05:43.256Z,3.24
2023-04-19T03:08:47.020Z,3.24
2023-04-19T03:11:51.867Z,3.18
2023-04-19T03:14:55.358Z,3.06
2023-04-19T03:17:58.990Z,3.05
2023-04-19T03:21:02.616Z,3.05
2023-04-19T03:24:06.661Z,3.00
2023-04-19T03:27:11.588Z,3.00
2023-04-19T03:30:15.492Z,2.84
2023-04-19T03:33:19.168Z,2.86
2023-04-19T03:36:23.452Z,2.81
2023-04-19T03:39:26.948Z,2.77
2023-04-19T03:42:32.060Z,2.74
2023-04-19T03:45:35.583Z,2.66
2023-04-19T03:48:39.268Z,2.68
2023-04-19T03:51:42.795Z,2.66
2023-04-19T03:54:46.364Z,2.55
2023-04-19T03:57:51.505Z,2.47
2023-04-19T04:00:54.995Z,2.45
2023-04-19T04:03:58.698Z,2.48
2023-04-19T04:07:02.587Z,2.49
2023-04-19T04:10:07.629Z,2.43
2023-04-19T04:13:12.511Z,2.41
2023-04-19T04:16:16.118Z,2.42
2023-04-19T04:19:22.009Z,2.46
2023-04-19T04:22:25.949Z,2.49
2023-04-19T04:25:30.064Z,2.43
2023-04-19T04:28:34.981Z,2.34
2023-04-19T04:31:38.607Z,2.28
2023-04-19T04:34:43.056Z,2.27
2023-04-19T04:37:46.627Z,2.32
2023-04-19T04:40:53.640Z,2.37
2023-04-19T04:44:12.166Z,2.35
2023-04-19T04:47:16.223Z,2.35
2023-04-19T04:50:19.849Z,2.38
2023-04-19T04:53:23.340Z,2.39
2023-04-19T04:56:27.502Z,2.32
2023-04-19T04:59:32.583Z,2.38
2023-04-19T05:02:36.503Z,2.35
2023-04-19T05:05:40.260Z,2.37
2023-04-19T05:08:44.016Z,2.49
2023-04-19T05:11:49.148Z,2.47
2023-04-19T05:14:55.171Z,2.52
2023-04-19T05:17:58.777Z,2.50
2023-04-19T05:21:03.194Z,2.58
2023-04-19T05:24:10.192Z,2.49
2023-04-19T05:27:14.019Z,2.51
2023-04-19T05:30:19.193Z,2.54
2023-04-19T05:33:22.798Z,2.72
2023-04-19T05:36:26.965Z,2.74
2023-04-19T05:39:30.638Z,2.88
2023-04-19T05:42:34.167Z,2.92
2023-04-19T05:45:39.332Z,2.97
2023-04-19T05:48:42.896Z,3.07
2023-04-19T05:51:46.460Z,3.35
2023-04-19T05:54:50.013Z,3.64
2023-04-19T05:57:53.590Z,3.97
2023-04-19T06:00:58.540Z,4.12
2023-04-19T06:04:02.788Z,4.11
2023-04-19T06:07:13.492Z,4.49
2023-04-19T06:10:21.495Z,4.44
2023-04-19T06:13:25.085Z,4.58
2023-04-19T06:16:30.175Z,5.06
2023-04-19T06:19:34.115Z,4.74
2023-04-19T06:22:44.193Z,5.17
2023-04-19T06:25:48.999Z,5.42
2023-04-19T06:28:52.702Z,5.35
2023-04-19T06:31:57.694Z,5.61
2023-04-19T06:35:01.297Z,5.54
2023-04-19T06:38:04.826Z,5.53
2023-04-19T06:41:09.303Z,5.99
2023-04-19T06:44:13.445Z,6.07
2023-04-19T06:47:18.404Z,6.49
2023-04-19T06:50:22.168Z,6.50
2023-04-19T06:53:26.817Z,6.31
2023-04-19T06:56:46.674Z,6.28
2023-04-19T06:59:50.413Z,6.28
2023-04-19T07:02:55.460Z,6.54
2023-04-19T07:05:59.186Z,6.49
2023-04-19T07:09:03.798Z,6.69
2023-04-19T07:12:08.282Z,7.39
2023-04-19T07:15:24.972Z,7.54
2023-04-19T07:18:29.947Z,7.53
2023-04-19T07:21:35.130Z,8.31
2023-04-19T07:24:40.289Z,8.47
2023-04-19T07:27:43.946Z,8.15
2023-04-19T07:30:47.581Z,8.74
2023-04-19T07:33:52.698Z,9.10
2023-04-19T07:36:56.320Z,9.00
2023-04-19T07:39:59.876Z,8.82
2023-04-19T07:43:03.739Z,9.13
2023-04-19T07:46:12.834Z,9.58
2023-04-19T07:49:17.838Z,10.03
2023-04-19T07:52:22.079Z,9.44
2023-04-19T07:55:25.682Z,10.28
2023-04-19T07:58:29.186Z,10.95
2023-04-19T08:01:33.001Z,10.43
2023-04-19T08:04:39.476Z,10.82
2023-04-19T08:07:43.706Z,10.81
2023-04-19T08:10:47.184Z,11.17
2023-04-19T08:14:02.922Z,11.18
2023-04-19T08:17:25.586Z,10.93
2023-04-19T08:20:32.126Z,10.75
2023-04-19T08:23:47.440Z,11.26
2023-04-19T08:26:54.718Z,11.08
2023-04-19T08:29:58.409Z,11.33
2023-04-19T08:33:02.756Z,11.70
2023-04-19T08:36:09.051Z,11.46
2023-04-19T08:39:24.618Z,11.28
2023-04-19T08:42:37.155Z,11.26
2023-04-19T08:45:41.998Z,11.15
2023-04-19T08:48:48.329Z,11.49
2023-04-19T08:51:54.390Z,11.93
2023-04-19T08:54:59.168Z,11.62
2023-04-19T08:58:09.615Z,11.38
2023-04-19T09:01:26.810Z,11.81
2023-04-19T09:04:37.891Z,11.47
2023-04-19T09:07:43.546Z,11.81
2023-04-19T09:10:55.933Z,11.94
2023-04-19T09:14:10.318Z,11.35
2023-04-19T09:17:18.570Z,11.82
2023-04-19T09:20:38.394Z,11.95
2023-04-19T09:23:49.001Z,11.80
2023-04-19T09:26:57.898Z,11.74
2023-04-19T09:30:04.030Z,11.84
2023-04-19T09:33:08.888Z,11.63
2023-04-19T09:36:14.192Z,11.40
2023-04-19T09:39:31.779Z,11.38
2023-04-19T09:45:54.097Z,11.28
2023-04-19T09:49:25.217Z,11.36
2023-04-19T09:52:31.524Z,11.87
2023-04-19T09:55:48.935Z,11.85
2023-04-19T09:59:12.887Z,12.43
2023-04-19T10:02:27.287Z,12.06
2023-04-19T10:05:31.858Z,11.73
2023-04-19T10:08:35.542Z,11.92
2023-04-19T10:11:42.927Z,12.05
2023-04-19T10:14:47.291Z,11.81
2023-04-19T10:17:51.427Z,12.08
2023-04-19T10:21:02.311Z,12.07
2023-04-19T10:24:07.231Z,12.24
2023-04-19T10:27:13.958Z,12.06
2023-04-19T10:30:22.632Z,12.07
2023-04-19T10:33:28.524Z,12.10
2023-04-19T10:36:32.034Z,11.91
2023-04-19T10:39:43.403Z,12.31
2023-04-19T10:43:24.202Z,12.40
2023-04-19T10:46:42.604Z,12.41
2023-04-19T10:49:47.229Z,12.47
2023-04-19T10:52:50.763Z,12.07
2023-04-19T10:55:54.387Z,12.06
2023-04-19T10:59:24.334Z,12.46
2023-04-19T11:02:32.833Z,12.47
2023-04-19T11:06:19.230Z,12.77
2023-04-19T11:09:24.793Z,12.58
2023-04-19T11:12:28.911Z,12.51
2023-04-19T11:15:33.836Z,12.68
2023-04-19T11:18:37.400Z,12.45
2023-04-19T11:21:41.949Z,12.97
2023-04-19T11:24:48.622Z,12.68
2023-04-19T11:27:54.082Z,12.80
2023-04-19T11:30:59.430Z,12.62
2023-04-19T11:34:05.046Z,12.94
2023-04-19T11:37:12.262Z,13.03
2023-04-19T11:40:18.742Z,12.48
2023-04-19T11:43:22.424Z,12.73
2023-04-19T11:46:27.389Z,12.10
2023-04-19T11:49:33.635Z,12.42
2023-04-19T11:52:37.217Z,13.05
2023-04-19T11:55:43.963Z,12.68
2023-04-19T11:58:49.119Z,12.86
2023-04-19T12:01:54.103Z,12.70
2023-04-19T12:04:57.794Z,12.65
2023-04-19T12:08:08.045Z,12.89
2023-04-19T12:11:11.673Z,12.88
2023-04-19T12:14:18.585Z,13.32
2023-04-19T12:17:23.712Z,13.02
2023-04-19T12:20:32.872Z,12.99
2023-04-19T12:23:36.375Z,12.91
2023-04-19T12:26:56.235Z,12.71
2023-04-19T12:30:00.016Z,12.48
2023-04-19T12:33:05.735Z,12.83
2023-04-19T12:36:09.888Z,12.69
2023-04-19T12:39:13.565Z,12.88
2023-04-19T12:42:17.273Z,12.64
2023-04-19T12:45:21.823Z,12.59
2023-04-19T12:48:27.092Z,12.65
2023-04-19T12:51:31.903Z,13.06
2023-04-19T12:54:35.484Z,12.64
2023-04-19T12:57:39.209Z,12.94
2023-04-19T13:00:43.156Z,12.70
2023-04-19T13:03:48.284Z,12.65
2023-04-19T13:06:51.974Z,12.58
2023-04-19T13:09:56.712Z,12.47
2023-04-19T13:13:00.806Z,12.84
2023-04-19T13:16:04.380Z,12.86
2023-04-19T13:19:09.359Z,12.77
2023-04-19T13:22:14.941Z,12.86
2023-04-19T13:25:18.451Z,12.64
2023-04-19T13:28:21.974Z,12.77
2023-04-19T13:31:27.143Z,12.53
2023-04-19T13:34:33.341Z,12.63
2023-04-19T13:37:36.879Z,12.73
2023-04-19T13:40:40.596Z,13.02
2023-04-19T13:43:44.037Z,12.66
2023-04-19T13:46:47.783Z,12.59
2023-04-19T13:49:53.069Z,12.61
2023-04-19T13:52:56.783Z,12.48
2023-04-19T13:56:00.913Z,12.27
2023-04-19T13:59:04.554Z,12.67
2023-04-19T14:02:08.253Z,12.38
2023-04-19T14:05:13.248Z,12.33
2023-04-19T14:08:16.758Z,12.41
2023-04-19T14:11:20.896Z,12.67
2023-04-19T14:14:25.688Z,12.18
2023-04-19T14:17:29.325Z,12.08
2023-04-19T14:20:34.416Z,12.27
2023-04-19T14:23:38.134Z,12.38
2023-04-19T14:26:41.609Z,12.51
2023-04-19T14:29:45.236Z,12.25
2023-04-19T14:32:48.902Z,12.57
2023-04-19T14:35:54.171Z,12.46
2023-04-19T14:38:57.646Z,12.41
2023-04-19T14:42:01.144Z,12.57
2023-04-19T14:45:07.140Z,12.13
2023-04-19T14:48:10.852Z,12.24
2023-04-19T14:51:15.736Z,12.18
2023-04-19T14:54:21.539Z,12.24
2023-04-19T14:57:25.844Z,12.34
2023-04-19T15:00:29.505Z,12.34
2023-04-19T15:03:33.205Z,12.12
2023-04-19T15:06:38.299Z,12.31
2023-04-19T15:09:41.875Z,12.17
2023-04-19T15:12:45.730Z,11.90
2023-04-19T15:15:49.326Z,11.91
2023-04-19T15:18:53.800Z,11.90
2023-04-19T15:21:58.987Z,11.72
2023-04-19T15:25:02.901Z,11.67
2023-04-19T15:28:06.756Z,11.82
2023-04-19T15:31:10.478Z,12.04
2023-04-19T15:34:14.079Z,11.80
2023-04-19T15:37:18.962Z,11.64
2023-04-19T15:40:24.676Z,11.81
2023-04-19T15:43:29.090Z,11.77
2023-04-19T15:46:32.589Z,11.53
2023-04-19T15:49:36.138Z,11.56
2023-04-19T15:52:41.302Z,11.47
2023-04-19T15:55:46.960Z,11.37
2023-04-19T15:58:50.437Z,11.31
2023-04-19T16:01:53.980Z,11.17
2023-04-19T16:04:57.617Z,11.04
2023-04-19T16:08:08.958Z,11.08
2023-04-19T16:11:12.463Z,11.15
2023-04-19T16:14:16.266Z,11.20
2023-04-19T16:17:19.827Z,11.22
2023-04-19T16:20:23.356Z,11.23
2023-04-19T16:23:28.259Z,11.17
2023-04-19T16:26:31.940Z,11.18
2023-04-19T16:29:35.623Z,11.30
2023-04-19T16:32:39.369Z,11.05
2023-04-19T16:35:43.116Z,10.90
2023-04-19T16:38:47.948Z,10.85
2023-04-19T16:41:52.031Z,10.81
2023-04-19T16:44:55.531Z,10.70
2023-04-19T16:47:59.119Z,10.74
2023-04-19T16:51:02.704Z,10.61
2023-04-19T16:54:07.678Z,10.72
2023-04-19T16:57:11.583Z,10.64
2023-04-19T17:00:16.311Z,10.51
2023-04-19T17:03:20.351Z,10.56
2023-04-19T17:06:24.011Z,10.56
2023-04-19T17:09:29.331Z,10.46
2023-04-19T17:12:32.913Z,10.45
2023-04-19T17:15:38.619Z,10.39
2023-04-19T17:18:42.433Z,10.34
2023-04-19T17:21:45.974Z,10.28
2023-04-19T17:24:50.964Z,10.23
2023-04-19T17:27:54.550Z,10.13
2023-04-19T17:30:58.551Z,10.22
2023-04-19T17:34:02.090Z,10.13
2023-04-19T17:37:05.831Z,10.13
2023-04-19T17:40:12.296Z,10.19
2023-04-19T17:43:15.963Z,10.15
2023-04-19T17:46:20.908Z,10.09
2023-04-19T17:49:26.542Z,10.07
2023-04-19T17:52:30.095Z,10.06
2023-04-19T17:55:35.449Z,10.02
2023-04-19T17:58:38.994Z,10.02
2023-04-19T18:01:42.634Z,9.92
2023-04-19T18:04:46.209Z,9.90
2023-04-19T18:07:50.884Z,9.86
2023-04-19T18:10:55.712Z,9.83
2023-04-19T18:13:59.524Z,9.76
2023-04-19T18:17:05.624Z,9.73
2023-04-19T18:20:13.698Z,9.64
2023-04-19T18:23:17.377Z,9.56
2023-04-19T18:26:22.631Z,9.48
2023-04-19T18:29:26.684Z,9.41
2023-04-19T18:32:31.879Z,9.33
2023-04-19T18:35:37.001Z,9.31
2023-04-19T18:38:40.524Z,9.19
2023-04-19T18:41:45.453Z,9.13
2023-04-19T18:44:54.194Z,9.06
2023-04-19T18:47:58.562Z,8.98
2023-04-19T18:51:02.233Z,8.89
2023-04-19T18:54:06.015Z,8.84
2023-04-19T18:57:23.244Z,8.78
2023-04-19T19:00:30.184Z,8.74
2023-04-19T19:06:41.289Z,8.68
2023-04-19T19:09:55.093Z,8.65
2023-04-19T19:13:00.953Z,8.70
2023-04-19T19:16:06.310Z,8.72
2023-04-19T19:19:10.784Z,8.72
2023-04-19T19:22:26.087Z,8.71
2023-04-19T19:25:33.021Z,8.73
2023-04-19T19:28:37.944Z,8.70
2023-04-19T19:31:43.111Z,8.67
2023-04-19T19:37:54.642Z,8.64
2023-04-19T19:44:06.523Z,8.54
2023-04-19T19:47:10.895Z,8.44
2023-04-19T19:51:01.125Z,8.44
2023-04-19T19:53:38.732Z,8.39
2023-04-19T19:57:00.591Z,8.32
2023-04-19T20:00:36.819Z,8.30
2023-04-19T20:03:38.088Z,8.19
2023-04-19T20:09:51.030Z,8.07
2023-04-19T20:12:57.008Z,7.99
2023-04-19T20:16:02.806Z,7.89
2023-04-19T20:19:10.270Z,7.81
2023-04-19T20:22:13.978Z,7.72
2023-04-19T20:25:17.676Z,7.63
2023-04-19T20:28:21.305Z,7.51
2023-04-19T20:31:26.483Z,7.44
2023-04-19T20:34:30.181Z,7.53
2023-04-19T20:37:33.731Z,7.42
2023-04-19T20:40:37.396Z,7.42
2023-04-19T20:43:41.064Z,7.33
2023-04-19T20:46:46.098Z,7.29
2023-04-19T20:49:49.637Z,7.23
2023-04-19T20:52:53.347Z,7.20
2023-04-19T20:55:56.998Z,7.15
2023-04-19T20:59:00.678Z,7.07
2023-04-19T21:02:05.899Z,7.08
2023-04-19T21:05:09.931Z,7.06
2023-04-19T21:08:15.183Z,7.01
2023-04-19T21:11:18.708Z,7.25
2023-04-19T21:14:22.369Z,7.29
2023-04-19T21:17:27.244Z,7.26
2023-04-19T21:20:30.985Z,7.21
2023-04-19T21:23:34.510Z,7.14
2023-04-19T21:26:38.105Z,6.97
2023-04-19T21:29:41.572Z,6.96
2023-04-19T21:32:51.007Z,6.96
2023-04-19T21:35:54.783Z,6.91
2023-04-19T21:38:58.433Z,6.93
2023-04-19T21:42:01.995Z,7.03
2023-04-19T21:45:07.283Z,7.13
2023-04-19T21:48:12.718Z,7.21
2023-04-19T21:51:17.382Z,7.26
2023-04-19T21:54:32.831Z,7.24
2023-04-19T21:57:38.459Z,7.23
2023-04-19T22:00:42.287Z,7.18
2023-04-19T22:03:47.743Z,7.24
2023-04-19T22:06:51.568Z,7.28
2023-04-19T22:09:56.942Z,7.36
2023-04-19T22:13:02.455Z,7.38
2023-04-19T22:16:08.767Z,7.48
2023-04-19T22:19:14.022Z,7.49
2023-04-19T22:22:17.830Z,7.46
2023-04-19T22:25:21.572Z,7.47
2023-04-19T22:28:25.140Z,7.42
2023-04-19T22:31:28.836Z,7.45
2023-04-19T22:34:33.869Z,7.43
2023-04-19T22:37:37.598Z,7.37
2023-04-19T22:40:41.603Z,7.37
2023-04-19T22:43:45.514Z,7.36
2023-04-19T22:46:50.005Z,7.28
2023-04-19T22:49:55.601Z,7.25
2023-04-19T22:52:59.225Z,7.24
2023-04-19T22:56:02.768Z,7.25
2023-04-19T22:59:08.296Z,7.32
2023-04-19T23:02:11.851Z,7.30
2023-04-19T23:05:18.169Z,7.32
2023-04-19T23:08:22.482Z,7.36
2023-04-19T23:11:26.941Z,7.38
2023-04-19T23:14:30.559Z,7.56
2023-04-19T23:17:34.798Z,7.63
2023-04-19T23:20:39.877Z,7.72
2023-04-19T23:23:43.609Z,7.72
2023-04-19T23:26:47.207Z,7.77
2023-04-19T23:29:50.742Z,7.33
2023-04-19T23:32:54.482Z,6.95
2023-04-19T23:35:59.489Z,6.80
2023-04-19T23:39:03.128Z,6.80
2023-04-19T23:42:06.856Z,6.82
2023-04-19T23:45:11.500Z,6.75
2023-04-19T23:48:15.093Z,6.70
2023-04-19T23:51:21.022Z,6.68
2023-04-19T23:54:26.209Z,6.67
2023-04-19T23:57:29.818Z,6.66
